Time;durP1;ratioP1;P1;durP2;ratioP2;P2;SDS_P1;SDS_P2;PMS_P1;PMS_P2;Temp;Humidity;BMP_temperature;BMP_pressure;BME280_temperature;BME280_humidity;BME280_pressure;Samples;Min_cycle;Max_cycle;Signal;HPM_P1;HPM_P2
2022/02/11 00:00:25;;;;;;;49.20;32.83;;;;;;;;;;5032010;28;20033;-78
2022/02/11 00:05:41;;;;;;;54.90;31.50;;;;;;;;;;5033037;28;20464;-77
2022/02/11 00:08:06;;;;;;;39.88;24.23;;;;;;;;;;5032731;28;20037;-77
2022/02/11 00:10:32;;;;;;;24.92;17.50;;;;;;;;;;5032996;28;20384;-77
2022/02/11 00:12:59;;;;;;;28.63;19.23;;;;;;;;;;5032439;28;20029;-77
2022/02/11 00:17:54;;;;;;;31.73;22.13;;;;;;;;;;5032877;28;20488;-77
2022/02/11 00:20:21;;;;;;;26.52;18.67;;;;;;;;;;5032833;28;20029;-76
2022/02/11 00:22:47;;;;;;;27.67;18.70;;;;;;;;;;5032798;28;20033;-77
2022/02/11 00:25:14;;;;;;;29.02;20.63;;;;;;;;;;5032625;28;20559;-76
2022/02/11 00:33:19;;;;;;;26.67;18.85;;;;;;;;;;5032917;28;20056;-77
2022/02/11 01:02:49;;;;;;;20.40;14.75;;;;;;;;;;5032747;28;20112;-77
2022/02/11 01:05:15;;;;;;;18.13;13.38;;;;;;;;;;5032034;28;20037;-76
2022/02/11 01:07:41;;;;;;;20.38;14.68;;;;;;;;;;5032398;28;20079;-77
2022/02/11 01:10:10;;;;;;;18.45;14.23;;;;;;;;;;5032140;28;20030;-77
2022/02/11 01:12:40;;;;;;;23.85;16.75;;;;;;;;;;5014904;28;20033;-76
2022/02/11 01:15:07;;;;;;;46.85;24.08;;;;;;;;;;5032225;28;20088;-77
2022/02/11 01:17:38;;;;;;;50.88;27.58;;;;;;;;;;5032383;28;20053;-76
2022/02/11 01:20:12;;;;;;;30.13;22.42;;;;;;;;;;5031903;28;20452;-77
2022/02/11 01:36:20;;;;;;;26.00;18.57;;;;;;;;;;5026321;28;20739;-77
2022/02/11 02:00:41;;;;;;;24.05;17.02;;;;;;;;;;5035260;28;20095;-77
2022/02/11 02:03:41;;;;;;;21.02;15.52;;;;;;;;;;5035224;28;20534;-77
2022/02/11 02:24:50;;;;;;;16.20;12.48;;;;;;;;;;5034626;28;20115;-77
2022/02/11 02:35:41;;;;;;;26.23;19.38;;;;;;;;;;5035024;28;20125;-77
2022/02/11 02:38:42;;;;;;;21.60;15.10;;;;;;;;;;5034559;28;20429;-77
2022/02/11 02:57:31;;;;;;;24.15;15.57;;;;;;;;;;5034542;28;20083;-77
2022/02/11 03:00:14;;;;;;;21.08;14.38;;;;;;;;;;5034541;28;20084;-77
2022/02/11 03:49:22;;;;;;;14.77;11.52;;;;;;;;;;5032589;28;20101;-77
2022/02/11 03:52:17;;;;;;;15.50;11.50;;;;;;;;;;5032943;28;20046;-76
2022/02/11 05:00:19;;;;;;;23.27;15.65;;;;;;;;;;5034900;28;20498;-77
2022/02/11 05:02:46;;;;;;;27.00;17.17;;;;;;;;;;5036371;28;20427;-77
2022/02/11 05:05:16;;;;;;;23.55;17.20;;;;;;;;;;5035999;28;20392;-78
2022/02/11 05:07:42;;;;;;;26.48;18.60;;;;;;;;;;5036251;28;20395;-77
2022/02/11 05:10:09;;;;;;;27.67;21.00;;;;;;;;;;5036163;28;20017;-77
2022/02/11 05:12:36;;;;;;;38.20;24.83;;;;;;;;;;5018221;28;20488;-77
2022/02/11 05:15:08;;;;;;;46.97;26.73;;;;;;;;;;5035165;28;20115;-78
2022/02/11 05:17:35;;;;;;;43.70;28.45;;;;;;;;;;5035749;28;20029;-78
2022/02/11 05:20:01;;;;;;;27.70;21.60;;;;;;;;;;5036076;28;20053;-77
2022/02/11 05:22:27;;;;;;;27.83;19.15;;;;;;;;;;5035611;28;20025;-77
2022/02/11 05:24:53;;;;;;;24.15;16.48;;;;;;;;;;5035585;28;20053;-77
2022/02/11 05:27:19;;;;;;;23.42;16.48;;;;;;;;;;5035761;28;20057;-78
2022/02/11 05:29:45;;;;;;;24.95;16.13;;;;;;;;;;5035929;28;20029;-78
2022/02/11 05:32:11;;;;;;;21.27;15.80;;;;;;;;;;5035796;28;20033;-78
2022/02/11 05:34:38;;;;;;;36.28;25.45;;;;;;;;;;5035545;28;20022;-78
2022/02/11 05:37:04;;;;;;;49.35;34.15;;;;;;;;;;5035622;28;20032;-77
2022/02/11 05:39:30;;;;;;;57.55;34.90;;;;;;;;;;5035347;28;20025;-78
2022/02/11 05:41:56;;;;;;;58.72;37.45;;;;;;;;;;5035725;28;20034;-78
2022/02/11 05:44:22;;;;;;;51.92;33.30;;;;;;;;;;5035408;28;20100;-77
2022/02/11 05:46:49;;;;;;;49.28;30.92;;;;;;;;;;5035586;28;20147;-78
2022/02/11 05:49:16;;;;;;;33.88;24.00;;;;;;;;;;5017737;28;20033;-77
2022/02/11 05:51:42;;;;;;;24.90;17.10;;;;;;;;;;5034802;28;20037;-77
2022/02/11 05:54:09;;;;;;;22.98;16.30;;;;;;;;;;5035449;28;20030;-78
2022/02/11 05:56:35;;;;;;;26.23;17.25;;;;;;;;;;5035157;28;20426;-77
2022/02/11 05:59:02;;;;;;;34.72;22.73;;;;;;;;;;5035327;28;20068;-78
2022/02/11 06:01:28;;;;;;;28.10;19.42;;;;;;;;;;5034773;28;20032;-78
2022/02/11 06:03:54;;;;;;;24.77;16.83;;;;;;;;;;5035185;28;20025;-76
2022/02/11 06:06:21;;;;;;;26.70;18.40;;;;;;;;;;5016997;28;20041;-77
2022/02/11 06:08:47;;;;;;;26.23;18.00;;;;;;;;;;5016871;28;20535;-77
2022/02/11 06:11:13;;;;;;;26.40;18.00;;;;;;;;;;5034163;28;20068;-77
2022/02/11 06:13:39;;;;;;;25.55;19.00;;;;;;;;;;5034832;28;20112;-77
2022/02/11 06:16:05;;;;;;;28.92;21.20;;;;;;;;;;5034988;28;20029;-78
2022/02/11 06:18:31;;;;;;;26.30;18.23;;;;;;;;;;5033322;28;20116;-77
2022/02/11 06:20:58;;;;;;;32.33;23.63;;;;;;;;;;5033910;28;20025;-77
2022/02/11 06:23:24;;;;;;;46.85;35.80;;;;;;;;;;5034100;28;20430;-78
2022/02/11 06:25:50;;;;;;;41.13;33.00;;;;;;;;;;5033714;28;20049;-77
2022/02/11 06:28:19;;;;;;;42.58;31.88;;;;;;;;;;5006424;28;20396;-78
2022/02/11 06:30:45;;;;;;;38.70;28.73;;;;;;;;;;5024389;28;20033;-78
2022/02/11 06:33:11;;;;;;;39.75;26.00;;;;;;;;;;5033944;28;20495;-78
2022/02/11 06:35:41;;;;;;;85.97;58.45;;;;;;;;;;5028550;28;20091;-78
2022/02/11 06:38:09;;;;;;;173.40;110.65;;;;;;;;;;5029355;28;20048;-81
2022/02/11 06:40:37;;;;;;;263.27;149.02;;;;;;;;;;5034224;28;20079;-79
2022/02/11 06:43:03;;;;;;;321.27;182.95;;;;;;;;;;5032730;28;20442;-81
2022/02/11 06:45:34;;;;;;;293.25;169.02;;;;;;;;;;5032858;28;20547;-81
2022/02/11 06:48:00;;;;;;;270.27;158.60;;;;;;;;;;5026350;28;20037;-81
2022/02/11 06:50:26;;;;;;;202.02;128.10;;;;;;;;;;5033057;28;20480;-78
2022/02/11 06:52:56;;;;;;;183.93;96.72;;;;;;;;;;5032831;28;20618;-76
2022/02/11 06:55:24;;;;;;;146.93;93.15;;;;;;;;;;5033311;28;20040;-77
2022/02/11 06:57:52;;;;;;;119.55;74.43;;;;;;;;;;5034093;28;20030;-78
2022/02/11 07:00:18;;;;;;;112.93;68.53;;;;;;;;;;5032581;28;20476;-78
2022/02/11 07:02:44;;;;;;;90.43;54.40;;;;;;;;;;5022109;28;20033;-77
2022/02/11 07:05:11;;;;;;;73.07;50.08;;;;;;;;;;5033175;28;20095;-77
2022/02/11 07:07:39;;;;;;;66.28;47.83;;;;;;;;;;5032738;28;20033;-77
2022/02/11 07:10:06;;;;;;;68.90;49.75;;;;;;;;;;5033710;28;20022;-75
2022/02/11 07:12:32;;;;;;;75.13;53.28;;;;;;;;;;5033723;28;20045;-77
2022/02/11 07:14:58;;;;;;;60.38;43.72;;;;;;;;;;5033107;28;20041;-78
2022/02/11 07:17:24;;;;;;;62.55;48.38;;;;;;;;;;5033244;28;20039;-78
2022/02/11 07:19:51;;;;;;;69.75;51.15;;;;;;;;;;5032389;28;20033;-78
2022/02/11 07:22:17;;;;;;;63.35;44.80;;;;;;;;;;5032906;28;20026;-78
2022/02/11 07:24:43;;;;;;;50.15;35.08;;;;;;;;;;5033234;28;20095;-79
2022/02/11 07:27:10;;;;;;;50.00;36.28;;;;;;;;;;5033546;28;20032;-79
2022/02/11 07:29:36;;;;;;;53.40;38.72;;;;;;;;;;5015275;28;20049;-76
2022/02/11 07:32:03;;;;;;;53.50;41.85;;;;;;;;;;5031751;28;20033;-78
2022/02/11 07:34:31;;;;;;;58.35;39.70;;;;;;;;;;5032183;28;20044;-80
2022/02/11 07:37:02;;;;;;;46.72;33.83;;;;;;;;;;5028108;28;20026;-80
2022/02/11 07:39:31;;;;;;;48.15;34.42;;;;;;;;;;5013422;28;20025;-80
2022/02/11 07:42:00;;;;;;;62.38;40.70;;;;;;;;;;5016726;28;20376;-80
2022/02/11 07:44:28;;;;;;;46.60;32.38;;;;;;;;;;5040267;28;20033;-79
2022/02/11 07:46:57;;;;;;;71.78;44.97;;;;;;;;;;5031562;28;20029;-79
2022/02/11 07:49:23;;;;;;;63.97;43.05;;;;;;;;;;5033021;28;20067;-79
2022/02/11 07:51:49;;;;;;;59.13;39.90;;;;;;;;;;5032264;28;20027;-78
2022/02/11 07:54:15;;;;;;;38.80;27.60;;;;;;;;;;5032258;28;20044;-79
2022/02/11 07:56:44;;;;;;;45.15;33.95;;;;;;;;;;5023897;28;20026;-78
2022/02/11 07:59:12;;;;;;;36.47;27.63;;;;;;;;;;5032750;28;20030;-80
2022/02/11 08:01:38;;;;;;;33.40;25.98;;;;;;;;;;5026688;28;20057;-78
2022/02/11 08:04:05;;;;;;;33.85;24.50;;;;;;;;;;5031302;28;20029;-78
2022/02/11 08:06:31;;;;;;;35.30;25.67;;;;;;;;;;5013463;28;20474;-78
2022/02/11 08:09:00;;;;;;;35.60;25.35;;;;;;;;;;5031548;28;20030;-78
2022/02/11 08:11:26;;;;;;;32.10;21.35;;;;;;;;;;5013231;28;20033;-77
2022/02/11 08:13:52;;;;;;;27.48;19.42;;;;;;;;;;5031277;28;20633;-78
2022/02/11 08:16:19;;;;;;;27.75;18.20;;;;;;;;;;5031279;28;20468;-77
2022/02/11 08:18:45;;;;;;;25.83;16.35;;;;;;;;;;5031242;28;20033;-78
2022/02/11 08:21:11;;;;;;;20.00;14.18;;;;;;;;;;5029485;28;20029;-77
2022/02/11 08:23:37;;;;;;;21.38;15.18;;;;;;;;;;5031102;28;20033;-77
2022/02/11 08:26:04;;;;;;;24.42;17.67;;;;;;;;;;5030969;28;20083;-76
2022/02/11 08:28:31;;;;;;;27.08;17.98;;;;;;;;;;5046946;28;20115;-77
2022/02/11 08:30:57;;;;;;;23.50;17.77;;;;;;;;;;5034555;28;20080;-80
2022/02/11 08:33:24;;;;;;;22.13;16.33;;;;;;;;;;5032837;28;20546;-79
2022/02/11 08:35:53;;;;;;;14.00;11.73;;;;;;;;;;5030774;28;20097;-82
2022/02/11 08:38:20;;;;;;;15.85;13.10;;;;;;;;;;5031230;28;20037;-80
2022/02/11 08:40:46;;;;;;;16.63;12.55;;;;;;;;;;5030568;28;20174;-82
2022/02/11 08:46:40;;;;;;;;;;;;;;;;;;;;;
2022/02/11 08:52:36;;;;;;;17.17;14.48;;;;;;;;;;4912082;29;20032;-79
2022/02/11 09:01:15;;;;;;;17.20;14.75;;;;;;;;;;4874525;29;20084;-79
2022/02/11 09:03:41;;;;;;;28.70;19.33;;;;;;;;;;4897972;29;20054;-78
2022/02/11 09:06:08;;;;;;;23.60;17.00;;;;;;;;;;4982486;28;20045;-79
2022/02/11 09:08:35;;;;;;;20.80;15.98;;;;;;;;;;5041167;28;20090;-81
2022/02/11 09:11:02;;;;;;;18.05;14.30;;;;;;;;;;5011586;28;20041;-78
2022/02/11 09:13:28;;;;;;;19.27;14.48;;;;;;;;;;4994930;28;20103;-80
2022/02/11 09:16:00;;;;;;;24.33;18.80;;;;;;;;;;5013084;28;20033;-82
2022/02/11 09:18:35;;;;;;;19.52;16.73;;;;;;;;;;5026221;28;20100;-82
2022/02/11 09:21:04;;;;;;;21.05;17.30;;;;;;;;;;5003002;28;20076;-80
2022/02/11 09:23:32;;;;;;;22.80;16.58;;;;;;;;;;5014451;28;20065;-79
2022/02/11 09:25:58;;;;;;;25.45;18.73;;;;;;;;;;5024311;28;20484;-79
2022/02/11 09:28:28;;;;;;;27.58;17.83;;;;;;;;;;5030493;28;20033;-77
2022/02/11 09:30:54;;;;;;;20.55;16.88;;;;;;;;;;5026493;28;20047;-79
2022/02/11 09:36:39;;;;;;;;;;;;;;;;;;;;;
2022/02/11 09:52:00;;;;;;;;;;;;;;;;;;;;;
2022/02/11 09:55:31;;;;;;;25.38;20.10;;;;;;;;;;4896877;29;20058;-81
2022/02/11 10:00:49;;;;;;;;;;;;;;;;;;;;;
2022/02/11 10:06:25;;;;;;;;;;;;;;;;;;;;;
2022/02/11 10:12:20;;;;;;;;;;;;;;;;;;;;;
2022/02/11 10:17:58;;;;;;;;;;;;;;;;;;;;;
2022/02/11 10:20:35;;;;;;;;;;;;;;;;;;;;;
2022/02/11 10:23:23;;;;;;;;;;;;;;;;;;;;;
2022/02/11 10:25:56;;;;;;;18.50;15.90;;;;;;;;;;4996697;28;20046;-77
2022/02/11 10:28:41;;;;;;;15.15;13.55;;;;;;;;;;5009223;28;20069;-76
2022/02/11 10:31:08;;;;;;;;;;;;;;;;;;5007643;28;20037;-77
2022/02/11 10:33:53;;;;;;;16.27;12.25;;;;;;;;;;4996254;28;20648;-79
2022/02/11 10:36:19;;;;;;;;;;;;;;;;;;5007226;28;20045;-77
2022/02/11 10:38:45;;;;;;;21.48;16.90;;;;;;;;;;4999709;28;19910;-76
2022/02/11 10:41:12;;;;;;;35.95;15.40;;;;;;;;;;5009292;28;20030;-80
2022/02/11 10:43:38;;;;;;;16.27;11.88;;;;;;;;;;5011199;28;20038;-78
2022/02/11 10:46:04;;;;;;;18.15;12.68;;;;;;;;;;5010639;28;20172;-73
2022/02/11 10:48:37;;;;;;;14.98;12.93;;;;;;;;;;5012397;28;20025;-74
2022/02/11 10:51:07;;;;;;;16.52;11.77;;;;;;;;;;5012148;28;20061;-77
2022/02/11 10:53:34;;;;;;;20.77;11.27;;;;;;;;;;5013246;28;20030;-74
2022/02/11 10:56:01;;;;;;;14.05;10.27;;;;;;;;;;5012904;28;20388;-75
2022/02/11 10:58:28;;;;;;;12.65;9.25;;;;;;;;;;5010532;28;20030;-74
2022/02/11 11:01:00;;;;;;;16.73;9.90;;;;;;;;;;5012553;28;20499;-74
2022/02/11 11:03:31;;;;;;;13.80;9.68;;;;;;;;;;5012380;28;20033;-75
2022/02/11 11:05:57;;;;;;;20.75;13.70;;;;;;;;;;5010926;28;20038;-75
2022/02/11 11:08:27;;;;;;;12.00;8.98;;;;;;;;;;4999136;28;20030;-74
2022/02/11 11:10:55;;;;;;;12.48;8.30;;;;;;;;;;5001988;28;20037;-74
2022/02/11 11:13:21;;;;;;;14.88;10.40;;;;;;;;;;4999997;28;20054;-75
2022/02/11 11:15:48;;;;;;;12.73;9.10;;;;;;;;;;4993577;28;20100;-74
2022/02/11 11:18:17;;;;;;;17.88;13.13;;;;;;;;;;5000389;28;20026;-75
2022/02/11 11:20:45;;;;;;;14.40;9.05;;;;;;;;;;5004822;28;20133;-75
2022/02/11 11:23:17;;;;;;;8.90;7.78;;;;;;;;;;5012564;28;20037;-75
2022/02/11 11:25:53;;;;;;;8.98;7.72;;;;;;;;;;5026500;28;20060;-76
2022/02/11 11:28:38;;;;;;;9.55;7.55;;;;;;;;;;5031562;28;20052;-75
2022/02/11 11:31:30;;;;;;;14.00;10.13;;;;;;;;;;5027661;28;20116;-71
2022/02/11 11:34:15;;;;;;;10.80;8.23;;;;;;;;;;5025954;28;20092;-80
2022/02/11 11:36:41;;;;;;;8.73;7.78;;;;;;;;;;5017113;28;20345;-80
2022/02/11 11:39:08;;;;;;;8.80;7.90;;;;;;;;;;5023351;28;20547;-76
2022/02/11 11:41:37;;;;;;;8.52;7.63;;;;;;;;;;5030993;28;20037;-76
2022/02/11 11:44:24;;;;;;;7.80;6.82;;;;;;;;;;5027837;28;20032;-76
2022/02/11 11:46:53;;;;;;;8.40;7.40;;;;;;;;;;5025655;28;20056;-81
2022/02/11 11:49:21;;;;;;;9.05;7.35;;;;;;;;;;5025459;28;20026;-82
2022/02/11 11:51:47;;;;;;;8.35;7.50;;;;;;;;;;5003692;28;20025;-79
2022/02/11 11:54:21;;;;;;;8.35;7.35;;;;;;;;;;5017392;28;20504;-84
2022/02/11 11:56:53;;;;;;;6.57;5.90;;;;;;;;;;5008477;28;20021;-80
2022/02/11 11:59:38;;;;;;;7.50;6.15;;;;;;;;;;5027693;28;20033;-81
2022/02/11 12:02:04;;;;;;;;;;;;;;;;;;5024903;28;20060;-78
2022/02/11 12:04:32;;;;;;;10.68;8.07;;;;;;;;;;5001935;28;19968;-78
2022/02/11 12:07:02;;;;;;;13.48;10.35;;;;;;;;;;5024688;28;20754;-79
2022/02/11 12:09:29;;;;;;;9.95;7.40;;;;;;;;;;5017713;28;20026;-80
2022/02/11 12:12:02;;;;;;;9.35;6.13;;;;;;;;;;5024713;28;20033;-79
2022/02/11 12:14:36;;;;;;;10.60;8.00;;;;;;;;;;5021477;28;20826;-78
2022/02/11 12:17:05;;;;;;;;;;;;;;;;;;5028148;28;20525;-78
2022/02/11 12:19:32;;;;;;;9.73;8.35;;;;;;;;;;5031457;28;19905;-77
2022/02/11 12:22:00;;;;;;;7.70;6.78;;;;;;;;;;5013603;28;20025;-81
2022/02/11 12:27:21;;;;;;;7.47;5.68;;;;;;;;;;5030757;28;20522;-78
2022/02/11 12:29:51;;;;;;;7.03;5.88;;;;;;;;;;5030102;28;20104;-78
2022/02/11 12:32:20;;;;;;;8.93;6.82;;;;;;;;;;5031155;28;20503;-80
2022/02/11 12:34:50;;;;;;;8.63;6.10;;;;;;;;;;5031015;28;20423;-79
2022/02/11 12:37:19;;;;;;;9.32;6.50;;;;;;;;;;5031026;28;20038;-79
2022/02/11 12:39:48;;;;;;;7.93;5.80;;;;;;;;;;5031014;28;20033;-79
2022/02/11 12:42:18;;;;;;;7.97;5.90;;;;;;;;;;5030814;28;20034;-79
2022/02/11 12:44:47;;;;;;;6.70;5.93;;;;;;;;;;5030936;28;20507;-80
2022/02/11 12:47:15;;;;;;;6.32;5.03;;;;;;;;;;5030454;28;20053;-78
2022/02/11 12:49:49;;;;;;;6.50;5.38;;;;;;;;;;5028975;28;20140;-81
2022/02/11 12:52:24;;;;;;;6.72;5.90;;;;;;;;;;5029653;28;20035;-79
2022/02/11 12:54:57;;;;;;;13.25;8.90;;;;;;;;;;5028380;28;20029;-79
2022/02/11 12:57:23;;;;;;;12.88;9.32;;;;;;;;;;5012828;28;20131;-80
2022/02/11 12:59:51;;;;;;;7.40;5.65;;;;;;;;;;5030167;28;20106;-79
2022/02/11 13:02:36;;;;;;;8.30;5.88;;;;;;;;;;5031783;28;20032;-77
2022/02/11 13:05:02;;;;;;;;;;;;;;;;;;5028968;28;20041;-80
2022/02/11 13:07:45;;;;;;;6.63;5.65;;;;;;;;;;5031750;28;20016;-84
2022/02/11 13:10:17;;;;;;;6.50;5.63;;;;;;;;;;5031075;28;20037;-80
2022/02/11 13:12:50;;;;;;;7.40;5.75;;;;;;;;;;5023597;28;20117;-80
2022/02/11 13:15:17;;;;;;;6.93;5.25;;;;;;;;;;5023137;28;20545;-78
2022/02/11 13:17:50;;;;;;;9.63;5.97;;;;;;;;;;5020735;28;20021;-79
2022/02/11 13:20:20;;;;;;;10.30;7.45;;;;;;;;;;5005307;28;20044;-79
2022/02/11 13:22:47;;;;;;;10.10;8.18;;;;;;;;;;5024890;28;20080;-79
2022/02/11 13:25:14;;;;;;;8.20;5.95;;;;;;;;;;5026593;28;20057;-79
2022/02/11 13:27:48;;;;;;;6.93;5.78;;;;;;;;;;5035166;28;20040;-79
2022/02/11 13:30:24;;;;;;;8.23;5.10;;;;;;;;;;5034864;28;20029;-77
2022/02/11 13:32:53;;;;;;;6.28;4.60;;;;;;;;;;5019127;28;20022;-77
2022/02/11 13:35:22;;;;;;;6.47;4.65;;;;;;;;;;5010813;28;20065;-78
2022/02/11 13:37:51;;;;;;;6.85;4.60;;;;;;;;;;5034627;28;20025;-78
2022/02/11 13:40:20;;;;;;;4.95;4.45;;;;;;;;;;5034558;28;20044;-79
2022/02/11 13:43:12;;;;;;;5.60;4.40;;;;;;;;;;5034959;28;20911;-79
2022/02/11 13:45:57;;;;;;;7.00;5.00;;;;;;;;;;5024830;28;20034;-79
2022/02/11 13:48:29;;;;;;;13.32;8.57;;;;;;;;;;5027951;28;20105;-79
2022/02/11 13:51:01;;;;;;;9.10;6.88;;;;;;;;;;5007456;28;20064;-79
2022/02/11 13:53:47;;;;;;;7.32;5.32;;;;;;;;;;5025811;28;20025;-78
2022/02/11 13:56:22;;;;;;;9.65;5.65;;;;;;;;;;5028022;28;20026;-79
2022/02/11 13:59:02;;;;;;;11.80;7.63;;;;;;;;;;5014891;28;20100;-79
2022/02/11 14:01:29;;;;;;;9.38;6.63;;;;;;;;;;5026701;28;20068;-78
2022/02/11 14:04:14;;;;;;;6.90;5.20;;;;;;;;;;5024936;28;20116;-81
2022/02/11 14:06:40;;;;;;;;;;;;;;;;;;5009737;28;20480;-77
2022/02/11 14:09:10;;;;;;;9.75;7.57;;;;;;;;;;5029194;28;19961;-77
2022/02/11 14:11:39;;;;;;;20.10;14.00;;;;;;;;;;5027409;28;20420;-79
2022/02/11 14:14:10;;;;;;;15.88;10.68;;;;;;;;;;5024515;28;20046;-79
2022/02/11 14:16:36;;;;;;;9.23;6.78;;;;;;;;;;4992243;28;20101;-80
2022/02/11 14:19:05;;;;;;;11.73;8.40;;;;;;;;;;5025234;28;20085;-78
2022/02/11 14:21:41;;;;;;;12.70;7.50;;;;;;;;;;5029561;28;20030;-79
2022/02/11 14:24:17;;;;;;;;;;;;;;;;;;;;;
2022/02/11 14:26:57;;;;;;;;;;;;;;;;;;;;;
2022/02/11 14:32:35;;;;;;;11.23;6.85;;;;;;;;;;4933770;29;20036;-78
2022/02/11 14:38:20;;;;;;;11.75;9.40;;;;;;;;;;4943986;29;20054;-78
2022/02/11 14:43:51;;;;;;;14.95;13.27;;;;;;;;;;5020399;28;20042;-78
2022/02/11 14:46:17;;;;;;;17.33;14.20;;;;;;;;;;5034072;28;20064;-78
2022/02/11 14:48:44;;;;;;;12.55;9.98;;;;;;;;;;5034127;28;20461;-77
2022/02/11 14:51:11;;;;;;;11.82;8.18;;;;;;;;;;5016404;28;20041;-78
2022/02/11 14:53:37;;;;;;;10.60;8.40;;;;;;;;;;5033553;28;20028;-78
2022/02/11 14:56:04;;;;;;;8.13;6.07;;;;;;;;;;5034378;28;20508;-77
2022/02/11 14:58:31;;;;;;;10.23;6.30;;;;;;;;;;5033944;28;20040;-78
2022/02/11 15:00:57;;;;;;;10.95;7.05;;;;;;;;;;5034152;28;20037;-78
2022/02/11 15:03:27;;;;;;;10.23;6.63;;;;;;;;;;5033709;28;20036;-78
2022/02/11 15:05:53;;;;;;;13.30;9.20;;;;;;;;;;5033966;28;20061;-78
2022/02/11 15:08:19;;;;;;;10.93;8.07;;;;;;;;;;5034006;28;20113;-79
2022/02/11 15:10:45;;;;;;;7.78;6.50;;;;;;;;;;5033913;28;20031;-77
2022/02/11 15:13:11;;;;;;;7.25;5.57;;;;;;;;;;5033840;28;20104;-77
2022/02/11 15:15:39;;;;;;;6.32;5.40;;;;;;;;;;5033636;28;20134;-77
2022/02/11 15:18:06;;;;;;;10.00;5.75;;;;;;;;;;5033962;28;20504;-77
2022/02/11 15:20:33;;;;;;;6.97;6.10;;;;;;;;;;5033236;28;20029;-77
2022/02/11 15:22:59;;;;;;;7.38;5.65;;;;;;;;;;5033918;28;20037;-78
2022/02/11 15:25:28;;;;;;;9.50;6.75;;;;;;;;;;5033450;28;20049;-77
2022/02/11 15:27:59;;;;;;;12.10;9.32;;;;;;;;;;5016160;28;20030;-78
2022/02/11 15:30:25;;;;;;;9.57;7.57;;;;;;;;;;5033368;28;20024;-78
2022/02/11 15:32:51;;;;;;;10.25;7.57;;;;;;;;;;5033768;28;20100;-77
2022/02/11 15:35:17;;;;;;;8.68;7.43;;;;;;;;;;5015945;28;20116;-77
2022/02/11 15:37:44;;;;;;;9.38;7.70;;;;;;;;;;5033602;28;20495;-77
2022/02/11 15:40:10;;;;;;;10.27;8.48;;;;;;;;;;5033661;28;20029;-77
2022/02/11 15:42:36;;;;;;;9.40;7.32;;;;;;;;;;5033380;28;20029;-77
2022/02/11 15:45:03;;;;;;;8.80;6.55;;;;;;;;;;5032509;28;20029;-77
2022/02/11 15:47:29;;;;;;;16.05;12.23;;;;;;;;;;5033101;28;20048;-79
2022/02/11 15:49:56;;;;;;;53.28;34.78;;;;;;;;;;5033520;28;20472;-80
2022/02/11 15:52:23;;;;;;;66.53;47.00;;;;;;;;;;5033333;28;20491;-80
2022/02/11 15:54:49;;;;;;;62.95;44.63;;;;;;;;;;5033119;28;20104;-79
2022/02/11 15:57:15;;;;;;;62.92;45.95;;;;;;;;;;5033452;28;20480;-79
2022/02/11 15:59:45;;;;;;;53.53;38.50;;;;;;;;;;5033022;28;20029;-78
2022/02/11 16:02:11;;;;;;;46.40;33.08;;;;;;;;;;5033214;28;20049;-78
2022/02/11 16:04:42;;;;;;;52.17;38.72;;;;;;;;;;5032857;28;20109;-78
2022/02/11 16:07:08;;;;;;;49.83;38.25;;;;;;;;;;5015314;28;20129;-78
2022/02/11 16:09:34;;;;;;;46.65;35.10;;;;;;;;;;5032729;28;20029;-78
2022/02/11 16:12:05;;;;;;;52.83;40.55;;;;;;;;;;5015532;28;20120;-78
2022/02/11 16:14:31;;;;;;;68.20;51.50;;;;;;;;;;5032707;28;20029;-78
2022/02/11 16:17:00;;;;;;;71.80;55.78;;;;;;;;;;5032372;28;20032;-78
2022/02/11 16:19:28;;;;;;;64.60;46.30;;;;;;;;;;5032493;28;20032;-78
2022/02/11 16:21:55;;;;;;;75.97;55.13;;;;;;;;;;5032781;28;20104;-77
2022/02/11 16:24:21;;;;;;;81.63;60.50;;;;;;;;;;5032371;28;20039;-77
2022/02/11 16:26:47;;;;;;;82.72;61.55;;;;;;;;;;5032569;28;20423;-77
2022/02/11 16:29:14;;;;;;;95.25;68.75;;;;;;;;;;5032684;28;20075;-77
2022/02/11 16:31:40;;;;;;;77.63;56.00;;;;;;;;;;5032447;28;20026;-77
2022/02/11 16:34:06;;;;;;;114.35;85.40;;;;;;;;;;5032710;28;20037;-78
2022/02/11 16:36:36;;;;;;;123.60;85.50;;;;;;;;;;5032180;28;20112;-78
2022/02/11 16:39:05;;;;;;;88.88;57.45;;;;;;;;;;5032414;28;20026;-78
2022/02/11 16:41:33;;;;;;;78.63;52.65;;;;;;;;;;5032086;28;20029;-78
2022/02/11 16:43:59;;;;;;;73.15;49.40;;;;;;;;;;5032466;28;20476;-77
2022/02/11 16:46:25;;;;;;;97.68;64.22;;;;;;;;;;5032145;28;20091;-77
2022/02/11 16:48:51;;;;;;;77.22;49.72;;;;;;;;;;5032505;28;20037;-77
2022/02/11 16:51:18;;;;;;;70.07;48.53;;;;;;;;;;5030414;28;20037;-77
2022/02/11 16:53:44;;;;;;;55.40;42.83;;;;;;;;;;5032439;28;20031;-77
2022/02/11 16:56:10;;;;;;;42.28;34.92;;;;;;;;;;5031922;28;20038;-77
2022/02/11 16:58:37;;;;;;;33.92;26.38;;;;;;;;;;5032129;28;20033;-77
2022/02/11 17:01:03;;;;;;;29.90;24.95;;;;;;;;;;5032284;28;20108;-76
2022/02/11 17:03:29;;;;;;;30.58;24.60;;;;;;;;;;5031941;28;20061;-77
2022/02/11 17:05:56;;;;;;;27.55;22.48;;;;;;;;;;5031750;28;20064;-76
2022/02/11 17:08:22;;;;;;;40.35;29.73;;;;;;;;;;5032434;28;20075;-76
2022/02/11 17:10:50;;;;;;;45.13;34.55;;;;;;;;;;5032316;28;20021;-77
2022/02/11 17:13:16;;;;;;;42.63;30.15;;;;;;;;;;5031787;28;20113;-77
2022/02/11 17:15:45;;;;;;;36.40;28.02;;;;;;;;;;5032101;28;20021;-76
2022/02/11 17:18:11;;;;;;;40.88;29.88;;;;;;;;;;5031917;28;20029;-76
2022/02/11 17:20:37;;;;;;;44.33;32.72;;;;;;;;;;5031669;28;20085;-76
2022/02/11 17:23:03;;;;;;;45.92;34.97;;;;;;;;;;5032033;28;20034;-76
2022/02/11 17:25:29;;;;;;;34.80;28.15;;;;;;;;;;5031733;28;20519;-77
2022/02/11 17:27:55;;;;;;;28.00;22.15;;;;;;;;;;5031894;28;20096;-76
2022/02/11 17:30:21;;;;;;;33.17;25.30;;;;;;;;;;5031958;28;20083;-76
2022/02/11 17:32:49;;;;;;;25.25;20.67;;;;;;;;;;5032160;28;20464;-76
2022/02/11 17:35:16;;;;;;;28.38;21.05;;;;;;;;;;5031606;28;20026;-76
2022/02/11 17:37:45;;;;;;;24.45;18.13;;;;;;;;;;5006420;28;20163;-76
2022/02/11 17:40:11;;;;;;;18.27;13.90;;;;;;;;;;5021805;28;20065;-77
2022/02/11 17:42:38;;;;;;;36.65;26.27;;;;;;;;;;5020052;28;20065;-76
2022/02/11 17:45:04;;;;;;;41.40;31.25;;;;;;;;;;5020123;28;20048;-77
2022/02/11 17:47:31;;;;;;;34.95;27.27;;;;;;;;;;5016044;28;20364;-77
2022/02/11 17:50:00;;;;;;;34.80;28.52;;;;;;;;;;5013647;28;20033;-77
2022/02/11 17:52:26;;;;;;;42.50;34.88;;;;;;;;;;5006552;28;20030;-77
2022/02/11 17:54:53;;;;;;;53.50;38.20;;;;;;;;;;5003788;28;20487;-76
2022/02/11 17:57:19;;;;;;;65.20;47.13;;;;;;;;;;5021765;28;20064;-76
2022/02/11 17:59:46;;;;;;;90.63;65.60;;;;;;;;;;5024447;28;20022;-76
2022/02/11 18:02:14;;;;;;;83.50;59.17;;;;;;;;;;5025001;28;20061;-77
2022/02/11 18:04:40;;;;;;;82.20;60.83;;;;;;;;;;5024812;28;20022;-76
2022/02/11 18:07:06;;;;;;;102.47;74.15;;;;;;;;;;5022998;28;20038;-76
2022/02/11 18:09:32;;;;;;;114.35;85.93;;;;;;;;;;5015148;28;20025;-76
2022/02/11 18:12:01;;;;;;;125.43;90.35;;;;;;;;;;5015292;28;20041;-76
2022/02/11 18:14:27;;;;;;;98.65;74.38;;;;;;;;;;5020399;28;20485;-76
2022/02/11 18:16:54;;;;;;;84.35;65.63;;;;;;;;;;5020737;28;20029;-76
2022/02/11 18:19:20;;;;;;;84.32;59.53;;;;;;;;;;5024329;28;20017;-77
2022/02/11 18:21:46;;;;;;;75.40;54.28;;;;;;;;;;5007463;28;20618;-76
2022/02/11 18:24:13;;;;;;;60.97;44.53;;;;;;;;;;5023335;28;20018;-76
2022/02/11 18:26:39;;;;;;;73.95;54.28;;;;;;;;;;5024814;28;20049;-77
2022/02/11 18:29:05;;;;;;;78.32;59.38;;;;;;;;;;5023602;28;20465;-77
2022/02/11 18:31:32;;;;;;;95.63;69.60;;;;;;;;;;5023751;28;20025;-77
2022/02/11 18:33:58;;;;;;;108.13;79.93;;;;;;;;;;5025017;28;20495;-77
2022/02/11 18:36:24;;;;;;;150.73;108.63;;;;;;;;;;5024415;28;20036;-77
2022/02/11 18:38:50;;;;;;;130.07;96.13;;;;;;;;;;5022647;28;20109;-77
2022/02/11 18:41:16;;;;;;;126.75;93.43;;;;;;;;;;5007411;28;20029;-77
2022/02/11 18:43:42;;;;;;;112.30;82.13;;;;;;;;;;5031373;28;20083;-77
2022/02/11 18:46:09;;;;;;;79.38;58.88;;;;;;;;;;5028396;28;20038;-77
2022/02/11 18:48:37;;;;;;;90.30;62.70;;;;;;;;;;5034585;28;20053;-77
2022/02/11 18:51:06;;;;;;;91.72;61.80;;;;;;;;;;5034327;28;20038;-77
2022/02/11 18:53:32;;;;;;;94.68;72.20;;;;;;;;;;5034260;28;20029;-77
2022/02/11 18:55:58;;;;;;;119.32;89.20;;;;;;;;;;5033974;28;20431;-77
2022/02/11 18:58:25;;;;;;;114.50;88.13;;;;;;;;;;5034407;28;20091;-77
2022/02/11 19:00:51;;;;;;;112.78;84.38;;;;;;;;;;5034210;28;20036;-77
2022/02/11 19:03:20;;;;;;;107.38;79.47;;;;;;;;;;5034278;28;20049;-77
2022/02/11 19:05:48;;;;;;;135.82;93.72;;;;;;;;;;5034029;28;20060;-77
2022/02/11 19:08:16;;;;;;;90.07;64.35;;;;;;;;;;5016512;28;20025;-77
2022/02/11 19:10:42;;;;;;;103.53;73.60;;;;;;;;;;5034135;28;20076;-77
2022/02/11 19:13:08;;;;;;;110.80;78.13;;;;;;;;;;5034136;28;20115;-77
2022/02/11 19:15:34;;;;;;;97.85;70.60;;;;;;;;;;5034045;28;20472;-77
2022/02/11 19:18:01;;;;;;;76.88;59.63;;;;;;;;;;5033737;28;20025;-77
2022/02/11 19:20:29;;;;;;;94.53;69.25;;;;;;;;;;5034111;28;20021;-78
2022/02/11 19:22:58;;;;;;;123.40;90.22;;;;;;;;;;5033823;28;20522;-77
2022/02/11 19:25:28;;;;;;;90.85;68.65;;;;;;;;;;5027352;28;20050;-78